sensor_id;sensor_type;location;lat;lon;timestamp;P1;durP1;ratioP1;P2;durP2;ratioP2
66856;SDS011;53766;50.280;19.160;2023-02-01T00:02:08;7.75;;;4.35;;
66856;SDS011;53766;50.280;19.160;2023-02-01T00:04:35;7.10;;;3.90;;
66856;SDS011;53766;50.280;19.160;2023-02-01T00:07:02;8.07;;;4.18;;
66856;SDS011;53766;50.280;19.160;2023-02-01T00:09:29;6.93;;;3.60;;
66856;SDS011;53766;50.280;19.160;2023-02-01T00:11:56;7.50;;;4.13;;
66856;SDS011;53766;50.280;19.160;2023-02-01T00:14:25;9.23;;;4.35;;
66856;SDS011;53766;50.280;19.160;2023-02-01T00:16:52;9.10;;;4.32;;
66856;SDS011;53766;50.280;19.160;2023-02-01T00:19:19;7.50;;;3.75;;
66856;SDS011;53766;50.280;19.160;2023-02-01T00:21:46;8.60;;;4.00;;
66856;SDS011;53766;50.280;19.160;2023-02-01T00:24:13;10.82;;;4.68;;
66856;SDS011;53766;50.280;19.160;2023-02-01T00:26:44;6.63;;;3.47;;
66856;SDS011;53766;50.280;19.160;2023-02-01T00:29:13;9.20;;;4.18;;
66856;SDS011;53766;50.280;19.160;2023-02-01T00:31:42;7.55;;;4.10;;
66856;SDS011;53766;50.280;19.160;2023-02-01T00:34:11;8.38;;;3.92;;
66856;SDS011;53766;50.280;19.160;2023-02-01T00:36:39;8.85;;;3.80;;
66856;SDS011;53766;50.280;19.160;2023-02-01T00:39:06;8.20;;;3.90;;
66856;SDS011;53766;50.280;19.160;2023-02-01T00:41:35;7.50;;;4.05;;
66856;SDS011;53766;50.280;19.160;2023-02-01T00:44:02;7.90;;;4.20;;
66856;SDS011;53766;50.280;19.160;2023-02-01T00:46:29;7.53;;;4.10;;
66856;SDS011;53766;50.280;19.160;2023-02-01T00:48:56;8.80;;;4.10;;
66856;SDS011;53766;50.280;19.160;2023-02-01T00:51:24;7.25;;;3.67;;
66856;SDS011;53766;50.280;19.160;2023-02-01T00:53:53;7.38;;;3.78;;
66856;SDS011;53766;50.280;19.160;2023-02-01T00:56:20;7.18;;;3.63;;
66856;SDS011;53766;50.280;19.160;2023-02-01T00:58:48;7.45;;;3.72;;
66856;SDS011;53766;50.280;19.160;2023-02-01T01:01:32;8.95;;;4.07;;
66856;SDS011;53766;50.280;19.160;2023-02-01T01:04:00;8.18;;;3.83;;
66856;SDS011;53766;50.280;19.160;2023-02-01T01:06:31;8.25;;;3.78;;
66856;SDS011;53766;50.280;19.160;2023-02-01T01:09:00;7.80;;;3.72;;
66856;SDS011;53766;50.280;19.160;2023-02-01T01:11:29;7.07;;;4.00;;
66856;SDS011;53766;50.280;19.160;2023-02-01T01:13:59;5.95;;;3.38;;
66856;SDS011;53766;50.280;19.160;2023-02-01T01:16:27;7.72;;;3.67;;
66856;SDS011;53766;50.280;19.160;2023-02-01T01:18:56;7.05;;;3.63;;
66856;SDS011;53766;50.280;19.160;2023-02-01T01:21:23;7.35;;;3.35;;
66856;SDS011;53766;50.280;19.160;2023-02-01T01:23:50;7.75;;;3.90;;
66856;SDS011;53766;50.280;19.160;2023-02-01T01:26:18;7.15;;;3.70;;
66856;SDS011;53766;50.280;19.160;2023-02-01T01:28:47;7.60;;;3.80;;
66856;SDS011;53766;50.280;19.160;2023-02-01T01:31:15;6.43;;;3.05;;
66856;SDS011;53766;50.280;19.160;2023-02-01T01:33:43;7.05;;;3.20;;
66856;SDS011;53766;50.280;19.160;2023-02-01T01:36:11;7.57;;;3.88;;
66856;SDS011;53766;50.280;19.160;2023-02-01T01:38:39;6.20;;;3.20;;
66856;SDS011;53766;50.280;19.160;2023-02-01T01:41:07;6.28;;;3.28;;
66856;SDS011;53766;50.280;19.160;2023-02-01T01:43:46;8.15;;;3.85;;
66856;SDS011;53766;50.280;19.160;2023-02-01T01:46:22;6.95;;;3.40;;
66856;SDS011;53766;50.280;19.160;2023-02-01T01:48:52;6.78;;;3.45;;
66856;SDS011;53766;50.280;19.160;2023-02-01T01:51:51;7.05;;;3.58;;
66856;SDS011;53766;50.280;19.160;2023-02-01T01:54:24;6.43;;;3.33;;
66856;SDS011;53766;50.280;19.160;2023-02-01T01:57:00;7.35;;;3.30;;
66856;SDS011;53766;50.280;19.160;2023-02-01T01:59:31;7.72;;;3.38;;
66856;SDS011;53766;50.280;19.160;2023-02-01T02:02:01;7.15;;;3.15;;
66856;SDS011;53766;50.280;19.160;2023-02-01T02:04:29;5.95;;;3.05;;
66856;SDS011;53766;50.280;19.160;2023-02-01T02:07:33;5.28;;;2.83;;
66856;SDS011;53766;50.280;19.160;2023-02-01T02:09:55;6.30;;;3.17;;
66856;SDS011;53766;50.280;19.160;2023-02-01T02:12:26;6.07;;;3.35;;
66856;SDS011;53766;50.280;19.160;2023-02-01T02:14:54;7.18;;;3.20;;
66856;SDS011;53766;50.280;19.160;2023-02-01T02:26:22;6.93;;;3.45;;
66856;SDS011;53766;50.280;19.160;2023-02-01T02:34:32;7.22;;;3.22;;
66856;SDS011;53766;50.280;19.160;2023-02-01T02:42:22;6.72;;;3.22;;
66856;SDS011;53766;50.280;19.160;2023-02-01T02:45:21;6.73;;;3.00;;
66856;SDS011;53766;50.280;19.160;2023-02-01T02:48:29;7.18;;;3.22;;
66856;SDS011;53766;50.280;19.160;2023-02-01T02:51:10;6.57;;;3.00;;
66856;SDS011;53766;50.280;19.160;2023-02-01T02:54:01;5.18;;;2.97;;
66856;SDS011;53766;50.280;19.160;2023-02-01T02:56:50;6.25;;;2.85;;
66856;SDS011;53766;50.280;19.160;2023-02-01T02:59:39;5.55;;;3.00;;
66856;SDS011;53766;50.280;19.160;2023-02-01T03:02:27;6.22;;;2.60;;
66856;SDS011;53766;50.280;19.160;2023-02-01T03:05:13;4.90;;;3.00;;
66856;SDS011;53766;50.280;19.160;2023-02-01T03:10:23;5.25;;;2.67;;
66856;SDS011;53766;50.280;19.160;2023-02-01T03:13:05;6.53;;;2.95;;
66856;SDS011;53766;50.280;19.160;2023-02-01T03:15:39;5.40;;;3.10;;
66856;SDS011;53766;50.280;19.160;2023-02-01T03:18:25;6.45;;;2.80;;
66856;SDS011;53766;50.280;19.160;2023-02-01T03:20:59;5.53;;;2.67;;
66856;SDS011;53766;50.280;19.160;2023-02-01T03:23:30;4.82;;;2.67;;
66856;SDS011;53766;50.280;19.160;2023-02-01T03:26:01;4.25;;;2.63;;
66856;SDS011;53766;50.280;19.160;2023-02-01T03:28:31;7.88;;;2.72;;
66856;SDS011;53766;50.280;19.160;2023-02-01T03:31:01;5.28;;;2.90;;
66856;SDS011;53766;50.280;19.160;2023-02-01T03:33:28;6.30;;;2.83;;
66856;SDS011;53766;50.280;19.160;2023-02-01T03:35:59;4.90;;;2.72;;
66856;SDS011;53766;50.280;19.160;2023-02-01T03:41:42;4.80;;;2.50;;
66856;SDS011;53766;50.280;19.160;2023-02-01T03:44:15;4.75;;;2.42;;
66856;SDS011;53766;50.280;19.160;2023-02-01T03:46:48;5.10;;;2.58;;
66856;SDS011;53766;50.280;19.160;2023-02-01T03:49:27;4.72;;;2.55;;
66856;SDS011;53766;50.280;19.160;2023-02-01T03:51:56;4.30;;;2.55;;
66856;SDS011;53766;50.280;19.160;2023-02-01T03:54:26;4.22;;;2.30;;
66856;SDS011;53766;50.280;19.160;2023-02-01T03:56:55;5.63;;;2.50;;
66856;SDS011;53766;50.280;19.160;2023-02-01T03:59:26;6.03;;;2.72;;
66856;SDS011;53766;50.280;19.160;2023-02-01T04:01:52;4.43;;;2.40;;
66856;SDS011;53766;50.280;19.160;2023-02-01T04:04:19;5.28;;;2.50;;
66856;SDS011;53766;50.280;19.160;2023-02-01T04:06:47;4.20;;;2.30;;
66856;SDS011;53766;50.280;19.160;2023-02-01T04:09:14;5.03;;;2.63;;
66856;SDS011;53766;50.280;19.160;2023-02-01T04:11:42;4.07;;;2.40;;
66856;SDS011;53766;50.280;19.160;2023-02-01T04:14:09;5.18;;;2.10;;
66856;SDS011;53766;50.280;19.160;2023-02-01T04:16:36;5.10;;;2.63;;
66856;SDS011;53766;50.280;19.160;2023-02-01T04:19:03;6.05;;;2.75;;
66856;SDS011;53766;50.280;19.160;2023-02-01T04:21:30;4.63;;;2.25;;
66856;SDS011;53766;50.280;19.160;2023-02-01T04:23:57;6.25;;;2.50;;
66856;SDS011;53766;50.280;19.160;2023-02-01T04:26:24;5.18;;;2.50;;
66856;SDS011;53766;50.280;19.160;2023-02-01T04:28:51;4.13;;;2.20;;
66856;SDS011;53766;50.280;19.160;2023-02-01T04:31:19;5.65;;;2.28;;
66856;SDS011;53766;50.280;19.160;2023-02-01T04:33:52;6.07;;;2.30;;
66856;SDS011;53766;50.280;19.160;2023-02-01T04:36:20;4.50;;;2.20;;
66856;SDS011;53766;50.280;19.160;2023-02-01T04:38:48;4.30;;;2.40;;
66856;SDS011;53766;50.280;19.160;2023-02-01T04:41:16;4.50;;;2.53;;
66856;SDS011;53766;50.280;19.160;2023-02-01T04:43:46;5.38;;;2.20;;
66856;SDS011;53766;50.280;19.160;2023-02-01T04:46:13;4.25;;;2.10;;
66856;SDS011;53766;50.280;19.160;2023-02-01T04:48:41;4.32;;;2.10;;
66856;SDS011;53766;50.280;19.160;2023-02-01T04:51:08;4.03;;;2.40;;
66856;SDS011;53766;50.280;19.160;2023-02-01T04:53:36;3.38;;;2.08;;
66856;SDS011;53766;50.280;19.160;2023-02-01T04:56:04;4.00;;;2.35;;
66856;SDS011;53766;50.280;19.160;2023-02-01T04:58:31;5.13;;;2.45;;
66856;SDS011;53766;50.280;19.160;2023-02-01T05:00:58;3.83;;;2.22;;
66856;SDS011;53766;50.280;19.160;2023-02-01T05:03:24;6.47;;;2.58;;
66856;SDS011;53766;50.280;19.160;2023-02-01T05:05:51;4.25;;;2.25;;
66856;SDS011;53766;50.280;19.160;2023-02-01T05:08:20;6.70;;;2.15;;
66856;SDS011;53766;50.280;19.160;2023-02-01T05:10:49;3.70;;;2.30;;
66856;SDS011;53766;50.280;19.160;2023-02-01T05:13:15;5.57;;;2.38;;
66856;SDS011;53766;50.280;19.160;2023-02-01T05:16:01;4.78;;;2.40;;
66856;SDS011;53766;50.280;19.160;2023-02-01T05:18:28;6.13;;;2.40;;
66856;SDS011;53766;50.280;19.160;2023-02-01T05:20:55;5.10;;;2.15;;
66856;SDS011;53766;50.280;19.160;2023-02-01T05:23:22;6.00;;;2.17;;
66856;SDS011;53766;50.280;19.160;2023-02-01T05:25:49;4.22;;;2.13;;
66856;SDS011;53766;50.280;19.160;2023-02-01T05:28:16;6.32;;;2.15;;
66856;SDS011;53766;50.280;19.160;2023-02-01T05:30:43;4.32;;;2.05;;
66856;SDS011;53766;50.280;19.160;2023-02-01T05:33:10;4.07;;;2.05;;
66856;SDS011;53766;50.280;19.160;2023-02-01T05:35:37;4.25;;;2.10;;
66856;SDS011;53766;50.280;19.160;2023-02-01T05:38:04;4.30;;;2.10;;
66856;SDS011;53766;50.280;19.160;2023-02-01T05:40:31;3.80;;;2.10;;
66856;SDS011;53766;50.280;19.160;2023-02-01T05:42:57;5.38;;;2.60;;
66856;SDS011;53766;50.280;19.160;2023-02-01T05:45:27;5.60;;;2.03;;
66856;SDS011;53766;50.280;19.160;2023-02-01T05:47:54;3.17;;;1.90;;
66856;SDS011;53766;50.280;19.160;2023-02-01T05:50:21;3.80;;;2.13;;
66856;SDS011;53766;50.280;19.160;2023-02-01T05:52:48;3.88;;;2.00;;
66856;SDS011;53766;50.280;19.160;2023-02-01T05:55:15;4.28;;;2.20;;
66856;SDS011;53766;50.280;19.160;2023-02-01T05:57:42;4.10;;;2.05;;
66856;SDS011;53766;50.280;19.160;2023-02-01T06:00:09;5.10;;;2.35;;
66856;SDS011;53766;50.280;19.160;2023-02-01T06:02:36;4.25;;;2.00;;
66856;SDS011;53766;50.280;19.160;2023-02-01T06:05:03;5.13;;;2.20;;
66856;SDS011;53766;50.280;19.160;2023-02-01T06:07:30;5.43;;;2.25;;
66856;SDS011;53766;50.280;19.160;2023-02-01T06:10:00;4.82;;;2.40;;
66856;SDS011;53766;50.280;19.160;2023-02-01T06:12:26;6.53;;;2.13;;
66856;SDS011;53766;50.280;19.160;2023-02-01T06:14:54;3.58;;;2.00;;
66856;SDS011;53766;50.280;19.160;2023-02-01T06:17:21;6.93;;;2.10;;
66856;SDS011;53766;50.280;19.160;2023-02-01T06:19:48;5.47;;;2.40;;
66856;SDS011;53766;50.280;19.160;2023-02-01T06:22:15;7.55;;;2.20;;
66856;SDS011;53766;50.280;19.160;2023-02-01T06:24:42;4.82;;;2.35;;
66856;SDS011;53766;50.280;19.160;2023-02-01T06:27:09;3.97;;;1.95;;
66856;SDS011;53766;50.280;19.160;2023-02-01T06:29:37;5.55;;;1.92;;
66856;SDS011;53766;50.280;19.160;2023-02-01T06:32:04;5.35;;;2.00;;
66856;SDS011;53766;50.280;19.160;2023-02-01T06:34:31;6.55;;;2.20;;
66856;SDS011;53766;50.280;19.160;2023-02-01T06:36:57;6.55;;;2.25;;
66856;SDS011;53766;50.280;19.160;2023-02-01T06:39:25;7.93;;;2.20;;
66856;SDS011;53766;50.280;19.160;2023-02-01T06:41:53;7.75;;;2.33;;
66856;SDS011;53766;50.280;19.160;2023-02-01T06:44:20;7.57;;;2.05;;
66856;SDS011;53766;50.280;19.160;2023-02-01T06:46:47;9.85;;;2.70;;
66856;SDS011;53766;50.280;19.160;2023-02-01T06:49:14;7.45;;;2.75;;
66856;SDS011;53766;50.280;19.160;2023-02-01T06:51:40;9.95;;;2.63;;
66856;SDS011;53766;50.280;19.160;2023-02-01T06:54:07;16.13;;;2.35;;
66856;SDS011;53766;50.280;19.160;2023-02-01T06:56:34;10.27;;;2.60;;
66856;SDS011;53766;50.280;19.160;2023-02-01T06:59:05;10.40;;;2.20;;
66856;SDS011;53766;50.280;19.160;2023-02-01T07:01:32;11.07;;;2.28;;
66856;SDS011;53766;50.280;19.160;2023-02-01T07:03:59;8.07;;;2.35;;
66856;SDS011;53766;50.280;19.160;2023-02-01T07:06:26;5.97;;;1.90;;
66856;SDS011;53766;50.280;19.160;2023-02-01T07:08:53;6.43;;;2.00;;
66856;SDS011;53766;50.280;19.160;2023-02-01T07:11:22;7.18;;;2.42;;
66856;SDS011;53766;50.280;19.160;2023-02-01T07:13:49;4.63;;;2.35;;
66856;SDS011;53766;50.280;19.160;2023-02-01T07:16:18;5.78;;;2.53;;
66856;SDS011;53766;50.280;19.160;2023-02-01T07:18:47;8.30;;;2.90;;
66856;SDS011;53766;50.280;19.160;2023-02-01T07:21:16;8.45;;;2.60;;
66856;SDS011;53766;50.280;19.160;2023-02-01T07:23:44;7.15;;;2.35;;
66856;SDS011;53766;50.280;19.160;2023-02-01T07:26:11;5.47;;;2.22;;
66856;SDS011;53766;50.280;19.160;2023-02-01T07:28:41;7.13;;;2.00;;
66856;SDS011;53766;50.280;19.160;2023-02-01T07:31:09;8.60;;;2.60;;
66856;SDS011;53766;50.280;19.160;2023-02-01T07:33:41;8.18;;;2.50;;
66856;SDS011;53766;50.280;19.160;2023-02-01T07:36:10;6.50;;;2.28;;
66856;SDS011;53766;50.280;19.160;2023-02-01T07:38:39;7.03;;;2.00;;
66856;SDS011;53766;50.280;19.160;2023-02-01T07:41:05;4.47;;;2.13;;
66856;SDS011;53766;50.280;19.160;2023-02-01T07:43:32;5.57;;;2.58;;
66856;SDS011;53766;50.280;19.160;2023-02-01T07:46:00;7.18;;;2.47;;
66856;SDS011;53766;50.280;19.160;2023-02-01T07:48:28;6.68;;;2.58;;
66856;SDS011;53766;50.280;19.160;2023-02-01T07:51:02;7.10;;;2.50;;
66856;SDS011;53766;50.280;19.160;2023-02-01T07:53:35;8.20;;;2.60;;
66856;SDS011;53766;50.280;19.160;2023-02-01T07:56:02;7.00;;;2.58;;
66856;SDS011;53766;50.280;19.160;2023-02-01T07:58:30;7.75;;;2.30;;
66856;SDS011;53766;50.280;19.160;2023-02-01T08:00:57;9.48;;;3.03;;
66856;SDS011;53766;50.280;19.160;2023-02-01T08:03:42;8.27;;;2.40;;
66856;SDS011;53766;50.280;19.160;2023-02-01T08:06:09;7.15;;;2.50;;
66856;SDS011;53766;50.280;19.160;2023-02-01T08:08:37;6.45;;;2.35;;
66856;SDS011;53766;50.280;19.160;2023-02-01T08:11:04;6.90;;;2.65;;
66856;SDS011;53766;50.280;19.160;2023-02-01T08:13:33;7.85;;;2.70;;
66856;SDS011;53766;50.280;19.160;2023-02-01T08:16:02;5.57;;;2.70;;
66856;SDS011;53766;50.280;19.160;2023-02-01T08:18:31;5.57;;;2.67;;
66856;SDS011;53766;50.280;19.160;2023-02-01T08:21:06;6.70;;;2.22;;
66856;SDS011;53766;50.280;19.160;2023-02-01T08:23:34;5.30;;;2.30;;
66856;SDS011;53766;50.280;19.160;2023-02-01T08:28:36;7.13;;;2.30;;
66856;SDS011;53766;50.280;19.160;2023-02-01T08:31:05;5.05;;;2.45;;
66856;SDS011;53766;50.280;19.160;2023-02-01T08:33:36;5.07;;;2.22;;
66856;SDS011;53766;50.280;19.160;2023-02-01T08:36:04;8.68;;;2.65;;
66856;SDS011;53766;50.280;19.160;2023-02-01T08:38:31;6.30;;;2.50;;
66856;SDS011;53766;50.280;19.160;2023-02-01T08:41:03;5.50;;;2.47;;
66856;SDS011;53766;50.280;19.160;2023-02-01T08:43:32;5.90;;;2.42;;
66856;SDS011;53766;50.280;19.160;2023-02-01T08:45:58;6.13;;;2.45;;
66856;SDS011;53766;50.280;19.160;2023-02-01T08:48:25;5.53;;;2.55;;
66856;SDS011;53766;50.280;19.160;2023-02-01T08:50:52;7.03;;;2.47;;
66856;SDS011;53766;50.280;19.160;2023-02-01T08:53:19;5.18;;;2.45;;
66856;SDS011;53766;50.280;19.160;2023-02-01T08:55:46;4.75;;;2.45;;
66856;SDS011;53766;50.280;19.160;2023-02-01T08:58:13;7.07;;;2.30;;
66856;SDS011;53766;50.280;19.160;2023-02-01T09:00:40;6.07;;;2.60;;
66856;SDS011;53766;50.280;19.160;2023-02-01T09:03:09;5.97;;;2.42;;
66856;SDS011;53766;50.280;19.160;2023-02-01T09:05:37;5.97;;;2.53;;
66856;SDS011;53766;50.280;19.160;2023-02-01T09:08:15;7.05;;;3.10;;
66856;SDS011;53766;50.280;19.160;2023-02-01T09:10:42;6.10;;;2.38;;
66856;SDS011;53766;50.280;19.160;2023-02-01T09:13:09;5.22;;;2.50;;
66856;SDS011;53766;50.280;19.160;2023-02-01T09:15:37;5.53;;;2.63;;
66856;SDS011;53766;50.280;19.160;2023-02-01T09:18:04;6.50;;;2.50;;
66856;SDS011;53766;50.280;19.160;2023-02-01T09:20:31;6.85;;;2.40;;
66856;SDS011;53766;50.280;19.160;2023-02-01T09:22:58;5.70;;;2.53;;
66856;SDS011;53766;50.280;19.160;2023-02-01T09:25:24;6.95;;;2.83;;
66856;SDS011;53766;50.280;19.160;2023-02-01T09:27:52;5.18;;;2.50;;
66856;SDS011;53766;50.280;19.160;2023-02-01T09:30:19;5.20;;;2.45;;
66856;SDS011;53766;50.280;19.160;2023-02-01T09:32:47;5.82;;;2.40;;
66856;SDS011;53766;50.280;19.160;2023-02-01T09:35:13;5.13;;;2.20;;
66856;SDS011;53766;50.280;19.160;2023-02-01T09:37:43;6.85;;;2.53;;
66856;SDS011;53766;50.280;19.160;2023-02-01T09:40:12;5.18;;;2.40;;
66856;SDS011;53766;50.280;19.160;2023-02-01T09:48:40;5.63;;;2.83;;
66856;SDS011;53766;50.280;19.160;2023-02-01T09:51:14;5.25;;;2.72;;
66856;SDS011;53766;50.280;19.160;2023-02-01T09:56:18;5.95;;;2.67;;
66856;SDS011;53766;50.280;19.160;2023-02-01T09:59:01;5.85;;;2.70;;
66856;SDS011;53766;50.280;19.160;2023-02-01T10:01:37;5.57;;;2.38;;
66856;SDS011;53766;50.280;19.160;2023-02-01T10:04:05;5.35;;;2.60;;
66856;SDS011;53766;50.280;19.160;2023-02-01T10:09:15;4.82;;;2.42;;
66856;SDS011;53766;50.280;19.160;2023-02-01T10:15:00;5.95;;;2.90;;
66856;SDS011;53766;50.280;19.160;2023-02-01T10:23:19;4.75;;;2.50;;
66856;SDS011;53766;50.280;19.160;2023-02-01T10:28:51;5.65;;;2.72;;
66856;SDS011;53766;50.280;19.160;2023-02-01T10:31:21;5.18;;;2.60;;
66856;SDS011;53766;50.280;19.160;2023-02-01T10:33:52;5.47;;;2.47;;
66856;SDS011;53766;50.280;19.160;2023-02-01T10:36:38;4.78;;;2.30;;
66856;SDS011;53766;50.280;19.160;2023-02-01T10:39:16;4.65;;;2.30;;
66856;SDS011;53766;50.280;19.160;2023-02-01T10:41:43;4.88;;;2.47;;
66856;SDS011;53766;50.280;19.160;2023-02-01T10:44:14;5.38;;;2.63;;
66856;SDS011;53766;50.280;19.160;2023-02-01T10:46:43;5.57;;;2.60;;
66856;SDS011;53766;50.280;19.160;2023-02-01T10:49:16;5.82;;;3.25;;
66856;SDS011;53766;50.280;19.160;2023-02-01T10:51:49;5.57;;;2.70;;
66856;SDS011;53766;50.280;19.160;2023-02-01T10:54:21;6.40;;;2.83;;
66856;SDS011;53766;50.280;19.160;2023-02-01T10:56:58;5.40;;;2.90;;
66856;SDS011;53766;50.280;19.160;2023-02-01T10:59:28;6.03;;;3.03;;
66856;SDS011;53766;50.280;19.160;2023-02-01T11:01:58;4.63;;;2.50;;
66856;SDS011;53766;50.280;19.160;2023-02-01T11:04:28;5.65;;;2.63;;
66856;SDS011;53766;50.280;19.160;2023-02-01T11:09:51;5.22;;;2.80;;
66856;SDS011;53766;50.280;19.160;2023-02-01T11:12:27;5.20;;;2.92;;
66856;SDS011;53766;50.280;19.160;2023-02-01T11:15:12;8.30;;;2.95;;
66856;SDS011;53766;50.280;19.160;2023-02-01T11:17:50;6.68;;;2.75;;
66856;SDS011;53766;50.280;19.160;2023-02-01T11:20:20;5.63;;;2.85;;
66856;SDS011;53766;50.280;19.160;2023-02-01T11:23:01;5.43;;;3.00;;
66856;SDS011;53766;50.280;19.160;2023-02-01T11:25:28;5.32;;;2.58;;
66856;SDS011;53766;50.280;19.160;2023-02-01T11:27:59;6.13;;;3.00;;
66856;SDS011;53766;50.280;19.160;2023-02-01T11:33:05;6.10;;;3.03;;
66856;SDS011;53766;50.280;19.160;2023-02-01T11:35:38;6.70;;;2.90;;
66856;SDS011;53766;50.280;19.160;2023-02-01T11:41:12;6.90;;;2.70;;
66856;SDS011;53766;50.280;19.160;2023-02-01T11:43:58;5.93;;;2.70;;
66856;SDS011;53766;50.280;19.160;2023-02-01T11:46:33;3.97;;;2.38;;
66856;SDS011;53766;50.280;19.160;2023-02-01T11:49:20;6.60;;;2.78;;
66856;SDS011;53766;50.280;19.160;2023-02-01T11:54:46;5.68;;;2.80;;
66856;SDS011;53766;50.280;19.160;2023-02-01T11:57:42;6.75;;;2.95;;
66856;SDS011;53766;50.280;19.160;2023-02-01T12:00:29;6.45;;;2.95;;
66856;SDS011;53766;50.280;19.160;2023-02-01T12:03:14;6.43;;;3.20;;
66856;SDS011;53766;50.280;19.160;2023-02-01T12:08:54;5.95;;;2.80;;
66856;SDS011;53766;50.280;19.160;2023-02-01T12:11:35;5.03;;;2.80;;
66856;SDS011;53766;50.280;19.160;2023-02-01T12:16:56;6.53;;;3.10;;
66856;SDS011;53766;50.280;19.160;2023-02-01T12:27:51;6.50;;;2.80;;
66856;SDS011;53766;50.280;19.160;2023-02-01T12:30:50;5.95;;;3.00;;
66856;SDS011;53766;50.280;19.160;2023-02-01T12:42:14;5.95;;;2.83;;
66856;SDS011;53766;50.280;19.160;2023-02-01T12:44:50;5.43;;;2.90;;
66856;SDS011;53766;50.280;19.160;2023-02-01T12:47:28;6.25;;;2.85;;
66856;SDS011;53766;50.280;19.160;2023-02-01T12:50:03;6.28;;;3.03;;
66856;SDS011;53766;50.280;19.160;2023-02-01T12:52:38;6.15;;;3.05;;
66856;SDS011;53766;50.280;19.160;2023-02-01T12:57:49;6.72;;;3.08;;
66856;SDS011;53766;50.280;19.160;2023-02-01T13:00:33;6.10;;;2.90;;
66856;SDS011;53766;50.280;19.160;2023-02-01T13:03:22;6.82;;;3.08;;
66856;SDS011;53766;50.280;19.160;2023-02-01T13:06:17;7.25;;;3.00;;
66856;SDS011;53766;50.280;19.160;2023-02-01T13:08:50;5.45;;;2.88;;
66856;SDS011;53766;50.280;19.160;2023-02-01T13:11:27;5.90;;;2.90;;
66856;SDS011;53766;50.280;19.160;2023-02-01T13:17:00;6.25;;;2.80;;
66856;SDS011;53766;50.280;19.160;2023-02-01T13:19:41;6.60;;;3.00;;
66856;SDS011;53766;50.280;19.160;2023-02-01T13:22:25;6.65;;;3.08;;
66856;SDS011;53766;50.280;19.160;2023-02-01T13:24:58;4.82;;;2.55;;
66856;SDS011;53766;50.280;19.160;2023-02-01T13:27:39;5.28;;;2.72;;
66856;SDS011;53766;50.280;19.160;2023-02-01T13:41:31;5.28;;;2.78;;
66856;SDS011;53766;50.280;19.160;2023-02-01T13:44:04;6.30;;;3.25;;
66856;SDS011;53766;50.280;19.160;2023-02-01T13:46:38;7.07;;;3.33;;
66856;SDS011;53766;50.280;19.160;2023-02-01T13:49:13;6.20;;;2.95;;
66856;SDS011;53766;50.280;19.160;2023-02-01T13:51:48;8.50;;;3.63;;
66856;SDS011;53766;50.280;19.160;2023-02-01T13:54:36;8.27;;;3.45;;
66856;SDS011;53766;50.280;19.160;2023-02-01T13:57:06;7.28;;;3.13;;
66856;SDS011;53766;50.280;19.160;2023-02-01T14:00:05;6.65;;;3.00;;
66856;SDS011;53766;50.280;19.160;2023-02-01T14:13:35;6.90;;;3.40;;
66856;SDS011;53766;50.280;19.160;2023-02-01T14:32:05;7.68;;;3.63;;
66856;SDS011;53766;50.280;19.160;2023-02-01T14:39:50;5.72;;;3.03;;
66856;SDS011;53766;50.280;19.160;2023-02-01T14:47:55;6.47;;;3.42;;
66856;SDS011;53766;50.280;19.160;2023-02-01T14:50:44;5.85;;;3.20;;
66856;SDS011;53766;50.280;19.160;2023-02-01T14:58:39;7.38;;;3.38;;
66856;SDS011;53766;50.280;19.160;2023-02-01T15:01:17;6.45;;;3.38;;
66856;SDS011;53766;50.280;19.160;2023-02-01T15:06:32;5.20;;;2.80;;
66856;SDS011;53766;50.280;19.160;2023-02-01T15:09:25;6.07;;;3.20;;
66856;SDS011;53766;50.280;19.160;2023-02-01T15:14:43;7.70;;;3.25;;
66856;SDS011;53766;50.280;19.160;2023-02-01T15:17:19;5.15;;;3.15;;
66856;SDS011;53766;50.280;19.160;2023-02-01T15:19:56;5.72;;;3.13;;
66856;SDS011;53766;50.280;19.160;2023-02-01T15:22:24;7.15;;;3.50;;
66856;SDS011;53766;50.280;19.160;2023-02-01T15:24:54;5.85;;;3.33;;
66856;SDS011;53766;50.280;19.160;2023-02-01T15:27:25;6.38;;;3.10;;
66856;SDS011;53766;50.280;19.160;2023-02-01T15:29:54;6.18;;;3.05;;
66856;SDS011;53766;50.280;19.160;2023-02-01T15:32:32;7.07;;;3.38;;
66856;SDS011;53766;50.280;19.160;2023-02-01T15:35:01;7.60;;;3.33;;
66856;SDS011;53766;50.280;19.160;2023-02-01T15:37:28;5.95;;;3.42;;
66856;SDS011;53766;50.280;19.160;2023-02-01T15:42:31;6.45;;;3.38;;
66856;SDS011;53766;50.280;19.160;2023-02-01T15:44:58;6.53;;;3.15;;
66856;SDS011;53766;50.280;19.160;2023-02-01T15:47:26;6.50;;;3.50;;
66856;SDS011;53766;50.280;19.160;2023-02-01T15:49:58;8.05;;;3.58;;
66856;SDS011;53766;50.280;19.160;2023-02-01T15:55:01;7.60;;;3.88;;
66856;SDS011;53766;50.280;19.160;2023-02-01T15:57:35;7.43;;;3.58;;
66856;SDS011;53766;50.280;19.160;2023-02-01T16:00:06;7.05;;;3.80;;
66856;SDS011;53766;50.280;19.160;2023-02-01T16:02:52;5.43;;;3.17;;
66856;SDS011;53766;50.280;19.160;2023-02-01T16:05:27;7.28;;;3.55;;
66856;SDS011;53766;50.280;19.160;2023-02-01T16:08:00;5.85;;;3.42;;
66856;SDS011;53766;50.280;19.160;2023-02-01T16:10:40;6.50;;;3.50;;
66856;SDS011;53766;50.280;19.160;2023-02-01T16:13:12;7.38;;;3.78;;
66856;SDS011;53766;50.280;19.160;2023-02-01T16:15:40;5.88;;;3.42;;
66856;SDS011;53766;50.280;19.160;2023-02-01T16:18:06;7.38;;;3.60;;
66856;SDS011;53766;50.280;19.160;2023-02-01T16:20:35;6.20;;;3.88;;
66856;SDS011;53766;50.280;19.160;2023-02-01T16:23:03;5.25;;;3.25;;
66856;SDS011;53766;50.280;19.160;2023-02-01T16:25:31;9.35;;;3.83;;
66856;SDS011;53766;50.280;19.160;2023-02-01T16:27:58;8.48;;;3.67;;
66856;SDS011;53766;50.280;19.160;2023-02-01T16:30:25;7.32;;;3.40;;
66856;SDS011;53766;50.280;19.160;2023-02-01T16:32:52;6.63;;;3.40;;
66856;SDS011;53766;50.280;19.160;2023-02-01T16:35:28;8.60;;;3.72;;
66856;SDS011;53766;50.280;19.160;2023-02-01T16:38:05;6.05;;;3.30;;
66856;SDS011;53766;50.280;19.160;2023-02-01T16:40:39;5.57;;;3.25;;
66856;SDS011;53766;50.280;19.160;2023-02-01T16:43:14;7.88;;;3.55;;
66856;SDS011;53766;50.280;19.160;2023-02-01T16:45:43;6.25;;;3.58;;
66856;SDS011;53766;50.280;19.160;2023-02-01T16:50:52;6.47;;;3.45;;
66856;SDS011;53766;50.280;19.160;2023-02-01T16:53:24;6.75;;;3.17;;
66856;SDS011;53766;50.280;19.160;2023-02-01T16:55:54;7.07;;;3.35;;
66856;SDS011;53766;50.280;19.160;2023-02-01T16:58:24;7.65;;;3.53;;
66856;SDS011;53766;50.280;19.160;2023-02-01T17:00:52;11.88;;;3.83;;
66856;SDS011;53766;50.280;19.160;2023-02-01T17:03:20;8.20;;;3.50;;
66856;SDS011;53766;50.280;19.160;2023-02-01T17:05:49;9.75;;;3.80;;
66856;SDS011;53766;50.280;19.160;2023-02-01T17:08:22;9.02;;;3.63;;
66856;SDS011;53766;50.280;19.160;2023-02-01T17:10:56;10.10;;;3.90;;
66856;SDS011;53766;50.280;19.160;2023-02-01T17:13:23;10.98;;;3.75;;
66856;SDS011;53766;50.280;19.160;2023-02-01T17:15:53;11.27;;;3.38;;
66856;SDS011;53766;50.280;19.160;2023-02-01T17:18:33;9.68;;;3.58;;
66856;SDS011;53766;50.280;19.160;2023-02-01T17:21:02;13.30;;;3.88;;
66856;SDS011;53766;50.280;19.160;2023-02-01T17:23:30;11.73;;;4.20;;
66856;SDS011;53766;50.280;19.160;2023-02-01T17:25:58;7.40;;;3.60;;
66856;SDS011;53766;50.280;19.160;2023-02-01T17:28:24;11.20;;;3.42;;
66856;SDS011;53766;50.280;19.160;2023-02-01T17:30:52;7.72;;;3.50;;
66856;SDS011;53766;50.280;19.160;2023-02-01T17:33:29;9.20;;;3.50;;
66856;SDS011;53766;50.280;19.160;2023-02-01T17:36:03;10.38;;;4.30;;
66856;SDS011;53766;50.280;19.160;2023-02-01T17:38:32;11.02;;;4.32;;